createdAt,value
2018-08-07T00:00:49.272Z,19.50
2018-08-07T00:03:19.036Z,19.50
2018-08-07T00:05:48.622Z,19.50
2018-08-07T00:08:18.201Z,19.40
2018-08-07T00:10:47.757Z,19.40
2018-08-07T00:13:17.213Z,19.30
2018-08-07T00:15:46.742Z,19.30
2018-08-07T00:18:16.223Z,19.30
2018-08-07T00:20:45.783Z,19.30
2018-08-07T00:23:15.336Z,19.30
2018-08-07T00:25:44.925Z,19.20
2018-08-07T00:28:14.489Z,19.20
2018-08-07T00:30:43.963Z,19.20
2018-08-07T00:33:13.491Z,19.20
2018-08-07T00:35:42.991Z,19.20
2018-08-07T00:38:12.470Z,19.10
2018-08-07T00:40:42.036Z,19.10
2018-08-07T00:43:11.503Z,19.10
2018-08-07T00:45:41.091Z,19.10
2018-08-07T00:48:10.599Z,19.10
2018-08-07T00:50:40.504Z,19.00
2018-08-07T00:53:10.016Z,19.00
2018-08-07T00:55:39.529Z,18.90
2018-08-07T00:58:09.122Z,18.90
2018-08-07T01:00:38.654Z,18.90
2018-08-07T01:03:08.159Z,18.80
2018-08-07T01:05:37.652Z,18.80
2018-08-07T01:08:07.167Z,18.80
2018-08-07T01:10:36.689Z,18.70
2018-08-07T01:13:06.264Z,18.70
2018-08-07T01:15:35.785Z,18.70
2018-08-07T01:18:06.390Z,18.70
2018-08-07T01:20:35.890Z,18.70
2018-08-07T01:23:05.467Z,18.70
2018-08-07T01:25:35.046Z,18.60
2018-08-07T01:28:05.224Z,18.50
2018-08-07T01:30:34.704Z,18.50
2018-08-07T01:33:04.229Z,18.50
2018-08-07T01:35:33.695Z,18.50
2018-08-07T01:38:03.244Z,18.40
2018-08-07T01:40:32.738Z,18.40
2018-08-07T01:43:02.266Z,18.40
2018-08-07T01:45:31.811Z,18.30
2018-08-07T01:48:01.294Z,18.30
2018-08-07T01:50:30.843Z,18.30
2018-08-07T01:53:00.339Z,18.20
2018-08-07T01:55:29.849Z,18.20
2018-08-07T01:57:59.376Z,18.10
2018-08-07T02:00:28.871Z,18.10
2018-08-07T02:02:58.381Z,18.10
2018-08-07T02:05:27.903Z,18.10
2018-08-07T02:07:57.387Z,18.00
2018-08-07T02:10:26.843Z,18.00
2018-08-07T02:12:56.360Z,18.00
2018-08-07T02:15:25.854Z,18.00
2018-08-07T02:17:55.404Z,18.00
2018-08-07T02:20:24.935Z,18.00
2018-08-07T02:22:54.408Z,18.00
2018-08-07T02:25:23.928Z,18.00
2018-08-07T02:27:53.427Z,17.90
2018-08-07T02:30:23.016Z,17.90
2018-08-07T02:32:52.730Z,17.80
2018-08-07T02:35:22.185Z,17.90
2018-08-07T02:37:51.773Z,17.80
2018-08-07T02:40:21.292Z,17.80
2018-08-07T02:42:50.862Z,17.80
2018-08-07T02:45:20.480Z,17.80
2018-08-07T02:47:50.021Z,17.80
2018-08-07T02:50:20.810Z,17.80
2018-08-07T02:52:50.332Z,17.80
2018-08-07T02:55:19.847Z,17.70
2018-08-07T02:57:49.389Z,17.70
2018-08-07T03:00:21.559Z,17.60
2018-08-07T03:02:51.123Z,17.60
2018-08-07T03:05:21.526Z,17.60
2018-08-07T03:07:51.242Z,17.50
2018-08-07T03:10:20.729Z,17.50
2018-08-07T03:12:50.216Z,17.40
2018-08-07T03:15:20.590Z,17.50
2018-08-07T03:17:50.480Z,17.40
2018-08-07T03:20:20.133Z,17.40
2018-08-07T03:25:18.599Z,17.40
2018-08-07T03:27:48.093Z,17.50
2018-08-07T03:30:19.751Z,17.50
2018-08-07T03:32:49.660Z,17.40
2018-08-07T03:35:19.270Z,17.50
2018-08-07T03:37:48.820Z,17.40
2018-08-07T03:40:20.136Z,17.50
2018-08-07T03:42:49.660Z,17.40
2018-08-07T03:45:20.088Z,17.40
2018-08-07T03:47:49.676Z,17.40
2018-08-07T03:50:19.210Z,17.40
2018-08-07T03:52:48.790Z,17.40
2018-08-07T03:55:19.424Z,17.40
2018-08-07T03:57:49.201Z,17.40
2018-08-07T04:00:20.892Z,17.30
2018-08-07T04:05:19.682Z,17.40
2018-08-07T04:07:49.222Z,17.40
2018-08-07T04:10:19.651Z,17.40
2018-08-07T04:12:49.195Z,17.40
2018-08-07T04:15:19.241Z,17.40
2018-08-07T04:17:48.761Z,17.40
2018-08-07T04:20:19.575Z,17.30
2018-08-07T04:25:18.128Z,17.30
2018-08-07T04:27:47.717Z,17.40
2018-08-07T04:30:18.636Z,17.40
2018-08-07T04:32:48.313Z,17.30
2018-08-07T04:35:18.364Z,17.30
2018-08-07T04:37:47.970Z,17.40
2018-08-07T04:40:17.513Z,17.50
2018-08-07T04:42:47.048Z,17.50
2018-08-07T04:45:17.834Z,17.60
2018-08-07T04:47:48.115Z,17.60
2018-08-07T04:50:17.638Z,17.60
2018-08-07T04:52:47.166Z,17.60
2018-08-07T04:55:16.653Z,17.60
2018-08-07T04:57:46.219Z,17.60
2018-08-07T05:00:18.999Z,17.70
2018-08-07T05:02:49.449Z,17.70
2018-08-07T05:05:19.085Z,17.80
2018-08-07T05:07:48.677Z,17.90
2018-08-07T05:10:18.974Z,18.00
2018-08-07T05:12:48.476Z,18.00
2018-08-07T05:15:18.016Z,18.00
2018-08-07T05:17:48.585Z,18.20
2018-08-07T05:20:18.150Z,18.20
2018-08-07T05:22:47.665Z,18.30
2018-08-07T05:25:17.212Z,18.50
2018-08-07T05:27:46.719Z,18.50
2018-08-07T05:30:17.189Z,18.60
2018-08-07T05:32:46.775Z,18.60
2018-08-07T05:35:16.675Z,18.70
2018-08-07T05:40:15.221Z,18.90
2018-08-07T05:42:44.873Z,19.00
2018-08-07T05:45:15.948Z,19.00
2018-08-07T05:47:45.559Z,19.10
2018-08-07T05:50:16.481Z,19.30
2018-08-07T05:52:45.883Z,19.40
2018-08-07T05:55:15.579Z,19.50
2018-08-07T05:57:45.202Z,19.70
2018-08-07T06:00:16.482Z,20.00
2018-08-07T06:02:47.235Z,20.20
2018-08-07T06:05:17.161Z,20.40
2018-08-07T06:07:47.184Z,20.60
2018-08-07T06:10:16.823Z,20.60
2018-08-07T06:12:46.409Z,20.80
2018-08-07T06:15:17.070Z,21.00
2018-08-07T06:17:47.220Z,21.20
2018-08-07T06:20:16.860Z,21.40
2018-08-07T06:27:44.377Z,21.90
2018-08-07T06:30:16.919Z,22.20
2018-08-07T06:32:47.332Z,22.50
2018-08-07T06:35:17.462Z,22.70
2018-08-07T06:37:47.165Z,22.80
2018-08-07T06:40:16.868Z,22.80
2018-08-07T06:42:46.427Z,22.90
2018-08-07T06:45:17.228Z,23.10
2018-08-07T06:50:18.074Z,23.50
2018-08-07T06:52:48.314Z,23.50
2018-08-07T06:55:17.995Z,23.70
2018-08-07T06:57:47.626Z,23.80
2018-08-07T07:00:23.845Z,24.00
2018-08-07T07:02:54.058Z,24.10
2018-08-07T07:05:24.036Z,24.30
2018-08-07T07:07:53.579Z,24.30
2018-08-07T07:10:23.170Z,24.60
2018-08-07T07:12:52.702Z,24.80
2018-08-07T07:15:22.302Z,25.00
2018-08-07T07:17:51.934Z,25.10
2018-08-07T07:22:50.589Z,25.60
2018-08-07T07:25:20.169Z,25.80
2018-08-07T07:27:49.733Z,26.00
2018-08-07T07:30:22.120Z,26.10
2018-08-07T07:32:53.210Z,26.20
2018-08-07T07:35:22.802Z,26.30
2018-08-07T07:37:52.441Z,26.40
2018-08-07T07:40:21.982Z,26.60
2018-08-07T07:45:21.186Z,26.80
2018-08-07T07:47:50.773Z,27.00
2018-08-07T07:50:21.560Z,27.00
2018-08-07T07:52:51.201Z,27.30
2018-08-07T07:55:23.763Z,27.40
2018-08-07T07:57:53.317Z,27.80
2018-08-07T08:00:25.092Z,28.10
2018-08-07T08:02:57.043Z,28.40
2018-08-07T08:05:27.300Z,28.50
2018-08-07T08:07:56.988Z,28.90
2018-08-07T08:10:27.960Z,29.00
2018-08-07T08:12:57.968Z,29.40
2018-08-07T08:15:27.510Z,29.60
2018-08-07T08:17:57.112Z,29.70
2018-08-07T08:20:26.797Z,29.90
2018-08-07T08:22:56.695Z,30.30
2018-08-07T08:25:26.297Z,30.40
2018-08-07T08:27:55.955Z,30.40
2018-08-07T08:30:25.560Z,30.50
2018-08-07T08:32:55.536Z,30.20
2018-08-07T08:35:25.153Z,30.30
2018-08-07T08:37:55.181Z,30.30
2018-08-07T08:40:25.601Z,30.50
2018-08-07T08:51:36.360Z,31.00
2018-08-07T08:54:06.092Z,31.00
2018-08-07T08:56:35.641Z,31.30
2018-08-07T08:59:05.790Z,31.60
2018-08-07T09:01:38.253Z,31.80
2018-08-07T09:04:08.035Z,31.90
2018-08-07T09:06:37.623Z,32.20
2018-08-07T09:09:23.325Z,32.50
2018-08-07T09:14:58.501Z,32.80
2018-08-07T09:17:45.825Z,33.00
2018-08-07T09:20:21.188Z,33.40
2018-08-07T09:22:51.195Z,33.20
2018-08-07T09:25:21.611Z,33.40
2018-08-07T09:27:51.316Z,33.50
2018-08-07T09:30:22.800Z,33.60
2018-08-07T09:32:53.102Z,33.90
2018-08-07T09:35:23.327Z,34.20
2018-08-07T09:40:22.875Z,34.50
2018-08-07T09:42:53.720Z,34.40
2018-08-07T09:45:30.278Z,34.40
2018-08-07T09:48:00.677Z,34.60
2018-08-07T09:50:30.207Z,34.30
2018-08-07T09:52:59.808Z,34.20
2018-08-07T09:55:29.395Z,34.10
2018-08-07T09:57:59.073Z,34.50
2018-08-07T10:00:34.019Z,34.40
2018-08-07T10:03:06.132Z,34.50
2018-08-07T10:05:36.089Z,34.60
2018-08-07T10:08:05.642Z,34.90
2018-08-07T10:10:35.672Z,35.10
2018-08-07T10:13:05.302Z,35.20
2018-08-07T10:15:34.902Z,35.00
2018-08-07T10:18:04.551Z,34.70
2018-08-07T10:20:34.297Z,35.00
2018-08-07T10:23:03.940Z,35.10
2018-08-07T10:25:34.043Z,34.90
2018-08-07T10:28:03.571Z,35.00
2018-08-07T10:30:33.175Z,35.10
2018-08-07T10:33:02.689Z,35.20
2018-08-07T10:35:32.265Z,35.20
2018-08-07T10:38:02.025Z,34.90
2018-08-07T10:40:31.584Z,35.30
2018-08-07T10:43:05.441Z,35.50
2018-08-07T10:45:35.077Z,35.60
2018-08-07T10:48:05.174Z,35.60
2018-08-07T10:50:34.793Z,35.90
2018-08-07T10:53:04.463Z,35.70
2018-08-07T10:55:34.136Z,35.60
2018-08-07T10:58:03.876Z,35.70
2018-08-07T11:00:34.515Z,35.70
2018-08-07T11:03:04.445Z,35.50
2018-08-07T11:05:34.347Z,36.00
2018-08-07T11:08:10.847Z,36.00
2018-08-07T11:10:41.487Z,36.20
2018-08-07T11:13:14.961Z,36.60
2018-08-07T11:15:46.349Z,36.40
2018-08-07T11:18:16.061Z,36.10
2018-08-07T11:20:45.623Z,36.20
2018-08-07T11:23:15.167Z,36.40
2018-08-07T11:25:45.025Z,36.80
2018-08-07T11:28:14.671Z,37.00
2018-08-07T11:30:44.323Z,37.00
2018-08-07T11:33:13.951Z,37.20
2018-08-07T11:35:43.515Z,37.10
2018-08-07T11:38:13.480Z,37.30
2018-08-07T11:40:43.065Z,37.50
2018-08-07T11:45:41.718Z,37.50
2018-08-07T11:48:11.449Z,37.20
2018-08-07T11:50:41.046Z,37.10
2018-08-07T11:53:12.212Z,37.10
2018-08-07T11:55:54.329Z,37.10
2018-08-07T11:58:24.437Z,37.30
2018-08-07T12:00:54.089Z,37.00
2018-08-07T12:03:23.991Z,37.40
2018-08-07T12:05:53.589Z,37.50
2018-08-07T12:08:23.230Z,37.40
2018-08-07T12:10:52.825Z,37.40
2018-08-07T12:13:22.355Z,37.00
2018-08-07T12:15:54.535Z,37.30
2018-08-07T12:18:24.771Z,37.50
2018-08-07T12:20:54.394Z,37.40
2018-08-07T12:23:24.107Z,37.50
2018-08-07T12:25:54.086Z,37.00
2018-08-07T12:28:23.702Z,37.40
2018-08-07T12:30:53.387Z,37.30
2018-08-07T12:33:23.095Z,37.10
2018-08-07T12:35:52.778Z,37.20
2018-08-07T12:38:22.422Z,37.30
2018-08-07T12:40:52.206Z,37.40
2018-08-07T12:43:22.048Z,37.20
2018-08-07T12:45:51.649Z,37.20
2018-08-07T12:48:21.199Z,37.10
2018-08-07T12:50:50.987Z,37.30
2018-08-07T12:53:21.817Z,37.50
2018-08-07T12:55:51.504Z,37.40
2018-08-07T12:58:21.325Z,37.60
2018-08-07T13:00:50.924Z,37.80
2018-08-07T13:03:20.486Z,38.10
2018-08-07T13:05:50.201Z,38.40
2018-08-07T13:08:19.880Z,38.40
2018-08-07T13:10:49.478Z,38.20
2018-08-07T13:13:21.709Z,38.30
2018-08-07T13:15:51.398Z,38.30
2018-08-07T13:18:20.955Z,38.10
2018-08-07T13:20:50.584Z,38.30
2018-08-07T13:23:20.158Z,38.50
2018-08-07T13:25:54.481Z,38.60
2018-08-07T13:28:24.014Z,38.60
2018-08-07T13:30:54.182Z,38.70
2018-08-07T13:33:23.777Z,38.60
2018-08-07T13:35:53.449Z,38.40
2018-08-07T13:38:23.776Z,38.40
2018-08-07T13:40:53.672Z,38.40
2018-08-07T13:43:23.430Z,38.50
2018-08-07T13:45:53.685Z,38.60
2018-08-07T13:48:24.828Z,38.30
2018-08-07T13:50:54.562Z,38.40
2018-08-07T13:55:55.358Z,37.80
2018-08-07T13:58:24.901Z,37.90
2018-08-07T14:01:03.406Z,38.00
2018-08-07T14:06:20.822Z,38.20
2018-08-07T14:08:50.927Z,38.40
2018-08-07T14:11:20.526Z,38.40
2018-08-07T14:13:50.104Z,38.30
2018-08-07T14:18:52.610Z,38.20
2018-08-07T14:21:25.078Z,38.20
2018-08-07T14:23:55.352Z,38.50
2018-08-07T14:26:43.186Z,38.40
2018-08-07T14:29:29.898Z,38.40
2018-08-07T14:31:59.436Z,38.60
2018-08-07T14:34:33.251Z,38.60
2018-08-07T14:37:02.787Z,38.50
2018-08-07T14:39:32.369Z,38.60
2018-08-07T14:42:03.466Z,38.70
2018-08-07T14:44:33.047Z,38.50
2018-08-07T14:47:02.784Z,38.10
2018-08-07T14:49:32.840Z,38.50
2018-08-07T14:52:02.818Z,38.50
2018-08-07T14:54:32.487Z,38.80
2018-08-07T14:57:02.089Z,38.80
2018-08-07T14:59:31.662Z,39.10
2018-08-07T15:02:01.197Z,38.90
2018-08-07T15:04:32.089Z,38.80
2018-08-07T15:07:03.037Z,38.60
2018-08-07T15:13:10.972Z,38.60
2018-08-07T15:15:40.507Z,38.70
2018-08-07T15:18:10.048Z,38.50
2018-08-07T15:20:39.723Z,38.70
2018-08-07T15:23:09.258Z,39.00
2018-08-07T15:25:38.886Z,38.90
2018-08-07T15:28:08.931Z,38.60
2018-08-07T15:30:38.703Z,38.60
2018-08-07T15:33:08.285Z,38.40
2018-08-07T15:35:40.465Z,38.20
2018-08-07T15:38:10.038Z,38.30
2018-08-07T15:40:39.668Z,38.60
2018-08-07T15:43:09.739Z,38.70
2018-08-07T15:45:39.410Z,38.80
2018-08-07T15:48:09.622Z,38.70
2018-08-07T15:50:39.255Z,38.70
2018-08-07T15:53:08.930Z,38.50
2018-08-07T15:55:38.472Z,38.70
2018-08-07T15:58:08.227Z,38.90
2018-08-07T16:00:37.756Z,38.60
2018-08-07T16:03:07.401Z,38.30
2018-08-07T16:05:37.041Z,38.40
2018-08-07T16:08:06.635Z,38.70
2018-08-07T16:10:36.233Z,38.80
2018-08-07T16:13:06.129Z,38.70
2018-08-07T16:15:36.115Z,39.10
2018-08-07T16:18:05.980Z,39.30
2018-08-07T16:20:36.455Z,39.30
2018-08-07T16:23:07.548Z,39.40
2018-08-07T16:25:37.131Z,39.50
2018-08-07T16:28:07.419Z,39.50
2018-08-07T16:30:37.049Z,39.50
2018-08-07T16:33:06.701Z,39.30
2018-08-07T16:35:36.222Z,39.50
2018-08-07T16:38:05.862Z,39.50
2018-08-07T16:40:35.503Z,39.70
2018-08-07T16:43:05.172Z,40.10
2018-08-07T16:45:34.767Z,40.40
2018-08-07T16:48:04.445Z,40.40
2018-08-07T16:50:34.021Z,40.40
2018-08-07T16:53:03.970Z,39.90
2018-08-07T16:55:33.539Z,39.40
2018-08-07T16:58:05.410Z,39.10
2018-08-07T17:00:34.994Z,38.70
2018-08-07T17:03:04.672Z,38.60
2018-08-07T17:05:41.446Z,38.70
2018-08-07T17:08:11.068Z,38.30
2018-08-07T17:10:41.198Z,38.10
2018-08-07T17:13:10.953Z,38.10
2018-08-07T17:15:42.782Z,37.90
2018-08-07T17:18:22.660Z,37.50
2018-08-07T17:20:52.261Z,37.30
2018-08-07T17:23:21.909Z,37.10
2018-08-07T17:25:51.454Z,36.90
2018-08-07T17:28:21.415Z,36.70
2018-08-07T17:30:51.156Z,36.80
2018-08-07T17:33:20.844Z,36.60
2018-08-07T17:35:50.415Z,36.60
2018-08-07T17:38:20.027Z,36.50
2018-08-07T17:40:50.678Z,36.50
2018-08-07T17:43:20.268Z,36.50
2018-08-07T17:45:49.909Z,36.40
2018-08-07T17:48:19.725Z,36.20
2018-08-07T17:50:49.847Z,36.00
2018-08-07T17:53:20.459Z,35.90
2018-08-07T17:56:04.256Z,35.80
2018-08-07T17:58:57.332Z,35.70
2018-08-07T18:01:46.351Z,35.50
2018-08-07T18:04:26.480Z,35.40
2018-08-07T18:06:57.516Z,35.30
2018-08-07T18:09:27.106Z,35.10
2018-08-07T18:12:18.637Z,35.00
2018-08-07T18:15:00.635Z,34.80
2018-08-07T18:17:32.938Z,34.70
2018-08-07T18:20:10.407Z,34.50
2018-08-07T18:23:55.145Z,34.30
2018-08-07T18:26:38.895Z,34.10
2018-08-07T18:29:10.527Z,33.80
2018-08-07T18:31:50.765Z,33.70
2018-08-07T18:34:26.270Z,33.50
2018-08-07T18:37:03.965Z,33.40
2018-08-07T18:39:36.551Z,33.20
2018-08-07T18:42:09.873Z,33.10
2018-08-07T18:44:39.831Z,33.00
2018-08-07T18:47:24.637Z,32.90
2018-08-07T18:49:55.438Z,33.00
2018-08-07T18:52:26.316Z,33.00
2018-08-07T18:54:56.870Z,33.00
2018-08-07T18:57:28.424Z,33.00
2018-08-07T19:00:05.301Z,32.90
2018-08-07T19:02:37.658Z,32.80
2018-08-07T19:05:12.481Z,32.50
2018-08-07T19:07:45.705Z,32.30
2018-08-07T19:10:16.929Z,32.20
2018-08-07T19:12:50.928Z,31.90
2018-08-07T19:15:21.168Z,31.80
2018-08-07T19:20:48.056Z,31.80
2018-08-07T19:23:20.194Z,31.70
2018-08-07T19:25:50.659Z,31.70
2018-08-07T19:28:21.162Z,31.50
2018-08-07T19:30:53.916Z,31.30
2018-08-07T19:33:28.153Z,31.20
2018-08-07T19:36:03.409Z,31.00
2018-08-07T19:38:37.959Z,30.80
2018-08-07T19:41:22.699Z,30.70
2018-08-07T19:44:07.315Z,30.40
2018-08-07T19:46:53.863Z,30.10
2018-08-07T19:49:26.144Z,29.90
2018-08-07T19:51:59.521Z,29.70
2018-08-07T19:54:44.285Z,29.60
2018-08-07T19:57:30.692Z,29.50
2018-08-07T20:00:19.813Z,29.30
2018-08-07T20:02:57.851Z,29.10
2018-08-07T20:05:36.409Z,29.00
2018-08-07T20:08:12.937Z,28.90
2018-08-07T20:10:50.525Z,28.80
2018-08-07T20:13:28.302Z,28.60
2018-08-07T20:24:56.993Z,28.20
2018-08-07T20:27:27.730Z,28.10
2018-08-07T20:30:03.399Z,28.10
2018-08-07T20:32:35.341Z,28.00
2018-08-07T20:35:09.632Z,27.90
2018-08-07T20:37:45.631Z,27.90
2018-08-07T20:40:23.489Z,27.80
2018-08-07T20:42:55.521Z,27.70
2018-08-07T20:45:38.540Z,27.60
2018-08-07T20:48:26.725Z,27.50
2018-08-07T20:51:07.506Z,27.40
2018-08-07T20:53:51.011Z,27.40
2018-08-07T20:56:27.721Z,27.30
2018-08-07T20:59:04.113Z,27.30
2018-08-07T21:01:35.724Z,27.50
2018-08-07T21:04:17.634Z,27.50
2018-08-07T21:07:06.751Z,27.70
2018-08-07T21:09:39.250Z,27.80
2018-08-07T21:12:15.067Z,27.70
2018-08-07T21:14:59.244Z,27.70
2018-08-07T21:17:29.154Z,27.70
2018-08-07T21:20:17.830Z,27.70
2018-08-07T21:23:08.703Z,27.60
2018-08-07T21:25:55.004Z,27.60
2018-08-07T21:28:37.467Z,27.50
2018-08-07T21:31:18.740Z,27.40
2018-08-07T21:34:06.923Z,27.40
2018-08-07T21:36:59.292Z,27.40
2018-08-07T21:39:46.597Z,27.30
2018-08-07T21:42:28.882Z,27.30
2018-08-07T21:45:12.306Z,27.30
2018-08-07T21:48:08.099Z,27.30
2018-08-07T21:50:52.911Z,27.20
2018-08-07T21:53:36.788Z,26.90
2018-08-07T21:56:07.297Z,26.80
2018-08-07T21:58:37.160Z,26.70
2018-08-07T22:01:10.578Z,26.60
2018-08-07T22:03:40.253Z,26.50
2018-08-07T22:06:10.317Z,26.50
2018-08-07T22:08:40.018Z,26.60
2018-08-07T22:11:20.916Z,26.60
2018-08-07T22:13:50.557Z,26.80
2018-08-07T22:16:23.165Z,26.90
2018-08-07T22:18:56.303Z,27.00
2018-08-07T22:21:31.044Z,27.10
2018-08-07T22:24:05.580Z,27.10
2018-08-07T22:26:39.262Z,27.10
2018-08-07T22:29:10.225Z,27.10
2018-08-07T22:31:39.983Z,27.00
2018-08-07T22:34:09.576Z,26.90
2018-08-07T22:36:39.193Z,26.80
2018-08-07T22:39:11.318Z,26.60
2018-08-07T22:41:45.083Z,26.50
2018-08-07T22:44:14.767Z,26.40
2018-08-07T22:46:48.631Z,26.20
2018-08-07T22:49:18.600Z,26.10
2018-08-07T22:51:49.297Z,26.00
2018-08-07T22:54:19.863Z,25.90
2018-08-07T22:56:49.913Z,25.80
2018-08-07T22:59:19.854Z,25.80
2018-08-07T23:01:50.789Z,25.80
2018-08-07T23:04:20.475Z,25.70
2018-08-07T23:06:50.518Z,25.70
2018-08-07T23:09:20.565Z,25.70
2018-08-07T23:11:50.186Z,25.60
2018-08-07T23:14:19.712Z,25.70
2018-08-07T23:16:49.244Z,25.80
2018-08-07T23:19:18.820Z,25.90
2018-08-07T23:21:49.080Z,26.00
2018-08-07T23:24:19.323Z,26.00
2018-08-07T23:26:49.336Z,26.00
2018-08-07T23:29:19.471Z,26.00
2018-08-07T23:31:49.147Z,26.00
2018-08-07T23:34:18.885Z,25.90
2018-08-07T23:36:49.051Z,25.80
2018-08-07T23:39:19.375Z,25.80
2018-08-07T23:41:49.010Z,25.70
2018-08-07T23:44:19.106Z,25.70
2018-08-07T23:46:49.078Z,25.60
2018-08-07T23:49:18.654Z,25.50
2018-08-07T23:51:49.466Z,25.40
2018-08-07T23:54:24.802Z,25.40
2018-08-07T23:56:54.631Z,25.40
2018-08-07T23:59:27.745Z,25.40
